Time;durP1;ratioP1;P1;durP2;ratioP2;P2;SDS_P1;SDS_P2;PMS_P1;PMS_P2;Temp;Humidity;BMP_temperature;BMP_pressure;BME280_temperature;BME280_humidity;BME280_pressure;Samples;Min_cycle;Max_cycle;Signal;HPM_P1;HPM_P2
2022/05/02 00:00:42;;;;;;;2.97;2.80;;;;;;;;;;4951235;29;20207;-64
2022/05/02 00:03:09;;;;;;;2.93;2.73;;;;;;;;;;4951289;28;20206;-64
2022/05/02 00:05:36;;;;;;;5.50;3.07;;;;;;;;;;4951524;28;20321;-64
2022/05/02 00:08:03;;;;;;;2.73;2.40;;;;;;;;;;4951474;28;20211;-64
2022/05/02 00:10:30;;;;;;;5.10;3.00;;;;;;;;;;4964958;28;20768;-64
2022/05/02 00:13:00;;;;;;;3.10;2.90;;;;;;;;;;4961075;28;20214;-64
2022/05/02 00:15:27;;;;;;;2.83;2.63;;;;;;;;;;4952070;28;20207;-64
2022/05/02 00:17:58;;;;;;;2.80;2.70;;;;;;;;;;4960179;28;20207;-64
2022/05/02 00:20:25;;;;;;;3.07;2.87;;;;;;;;;;4956165;28;20213;-64
2022/05/02 00:22:52;;;;;;;2.83;2.63;;;;;;;;;;4967723;28;20669;-66
2022/05/02 00:25:19;;;;;;;5.60;2.97;;;;;;;;;;4951196;28;20218;-64
2022/05/02 00:27:46;;;;;;;2.93;2.73;;;;;;;;;;4954085;28;20626;-64
2022/05/02 00:30:15;;;;;;;2.70;2.50;;;;;;;;;;4947674;28;20228;-64
2022/05/02 00:32:43;;;;;;;3.30;2.90;;;;;;;;;;4962089;28;20728;-64
2022/05/02 00:35:10;;;;;;;2.57;2.37;;;;;;;;;;4969326;28;20207;-64
2022/05/02 00:37:37;;;;;;;2.80;2.60;;;;;;;;;;4963360;28;20613;-64
2022/05/02 00:40:05;;;;;;;2.67;2.57;;;;;;;;;;4952885;28;20211;-65
2022/05/02 00:42:32;;;;;;;4.43;2.60;;;;;;;;;;4963732;28;20214;-64
2022/05/02 00:45:02;;;;;;;3.23;2.97;;;;;;;;;;4953134;28;20207;-65
2022/05/02 00:47:31;;;;;;;4.20;3.10;;;;;;;;;;4953980;28;20206;-65
2022/05/02 00:49:58;;;;;;;3.23;2.93;;;;;;;;;;4956065;28;20231;-64
2022/05/02 00:52:25;;;;;;;3.20;3.00;;;;;;;;;;4956797;28;20574;-65
2022/05/02 00:54:52;;;;;;;2.80;2.60;;;;;;;;;;4952131;28;20214;-65
2022/05/02 00:57:19;;;;;;;3.03;2.80;;;;;;;;;;4950937;28;20218;-65
2022/05/02 00:59:46;;;;;;;3.50;3.20;;;;;;;;;;4962239;28;20202;-65
2022/05/02 01:02:15;;;;;;;3.43;3.13;;;;;;;;;;4953293;28;20222;-65
2022/05/02 01:04:43;;;;;;;3.00;2.80;;;;;;;;;;4956235;28;20237;-64
2022/05/02 01:07:11;;;;;;;3.03;2.93;;;;;;;;;;4956756;28;20249;-65
2022/05/02 01:09:38;;;;;;;2.87;2.70;;;;;;;;;;4959890;28;20261;-64
2022/05/02 01:12:07;;;;;;;2.53;2.40;;;;;;;;;;4952200;28;20289;-65
2022/05/02 01:14:35;;;;;;;2.93;2.73;;;;;;;;;;4955770;28;20593;-64
2022/05/02 01:17:02;;;;;;;4.30;2.57;;;;;;;;;;4959543;28;20221;-64
2022/05/02 01:19:29;;;;;;;2.83;2.63;;;;;;;;;;4951486;28;20203;-64
2022/05/02 01:21:57;;;;;;;2.77;2.57;;;;;;;;;;4957097;28;20261;-65
2022/05/02 01:24:32;;;;;;;2.50;2.27;;;;;;;;;;4953913;28;20262;-64
2022/05/02 01:26:59;;;;;;;2.97;2.87;;;;;;;;;;4957441;28;20288;-64
2022/05/02 01:29:26;;;;;;;3.60;2.77;;;;;;;;;;4956896;28;20329;-64
2022/05/02 01:31:54;;;;;;;2.63;2.43;;;;;;;;;;4952814;28;20222;-65
2022/05/02 01:34:21;;;;;;;3.47;2.60;;;;;;;;;;4951685;28;20290;-64
2022/05/02 01:36:48;;;;;;;5.43;3.27;;;;;;;;;;4950814;28;20234;-64
2022/05/02 01:39:17;;;;;;;3.67;3.10;;;;;;;;;;4957123;28;20206;-65
2022/05/02 01:41:44;;;;;;;3.27;2.97;;;;;;;;;;4960956;28;20218;-65
2022/05/02 01:44:11;;;;;;;2.70;2.50;;;;;;;;;;4952959;28;20203;-64
2022/05/02 01:46:38;;;;;;;3.00;2.77;;;;;;;;;;4968524;28;20217;-64
2022/05/02 01:49:06;;;;;;;3.17;2.80;;;;;;;;;;4952929;28;20246;-65
2022/05/02 01:51:33;;;;;;;2.57;2.37;;;;;;;;;;4963542;28;20247;-65
2022/05/02 01:54:00;;;;;;;2.80;2.60;;;;;;;;;;4951018;28;20211;-65
2022/05/02 01:56:28;;;;;;;3.07;2.87;;;;;;;;;;4951804;28;20250;-66
2022/05/02 01:58:55;;;;;;;2.70;2.40;;;;;;;;;;4954755;28;20215;-65
2022/05/02 02:01:22;;;;;;;3.07;2.87;;;;;;;;;;4968142;28;20210;-66
2022/05/02 02:03:49;;;;;;;3.53;3.23;;;;;;;;;;4953750;28;20226;-63
2022/05/02 02:06:15;;;;;;;3.03;2.73;;;;;;;;;;4951983;28;20718;-63
2022/05/02 02:08:42;;;;;;;2.53;2.43;;;;;;;;;;4953602;28;20253;-63
2022/05/02 02:11:11;;;;;;;2.97;2.80;;;;;;;;;;4947045;29;20235;-63
2022/05/02 02:13:40;;;;;;;3.03;2.83;;;;;;;;;;4945030;29;20214;-63
2022/05/02 02:16:09;;;;;;;3.20;2.83;;;;;;;;;;4947681;29;20286;-63
2022/05/02 02:18:37;;;;;;;3.60;3.30;;;;;;;;;;4947825;28;20239;-63
2022/05/02 02:21:05;;;;;;;2.80;2.57;;;;;;;;;;4946334;29;20241;-63
2022/05/02 02:23:32;;;;;;;2.67;2.57;;;;;;;;;;4946393;29;20208;-63
2022/05/02 02:25:59;;;;;;;3.50;3.30;;;;;;;;;;4948184;28;20210;-64
2022/05/02 02:28:26;;;;;;;3.80;3.27;;;;;;;;;;4946877;29;20219;-64
2022/05/02 02:30:55;;;;;;;2.87;2.70;;;;;;;;;;4948822;28;20230;-64
2022/05/02 02:33:22;;;;;;;3.33;2.90;;;;;;;;;;4948475;29;20219;-64
2022/05/02 02:35:49;;;;;;;3.30;3.00;;;;;;;;;;4946776;29;20212;-64
2022/05/02 02:38:16;;;;;;;3.30;3.00;;;;;;;;;;4946714;28;20302;-63
2022/05/02 02:40:43;;;;;;;3.33;2.83;;;;;;;;;;4946359;28;20207;-63
2022/05/02 02:43:28;;;;;;;2.70;2.50;;;;;;;;;;4946819;29;20211;-64
2022/05/02 02:45:56;;;;;;;3.27;2.97;;;;;;;;;;4945743;29;20202;-65
2022/05/02 02:48:23;;;;;;;5.37;2.80;;;;;;;;;;4946051;29;20210;-64
2022/05/02 02:50:50;;;;;;;3.10;2.90;;;;;;;;;;4946775;28;20231;-64
2022/05/02 02:53:17;;;;;;;3.07;2.87;;;;;;;;;;4944707;29;20210;-64
2022/05/02 02:55:45;;;;;;;4.47;2.97;;;;;;;;;;4946536;29;20214;-64
2022/05/02 02:58:12;;;;;;;3.27;3.07;;;;;;;;;;4946676;29;20339;-64
2022/05/02 03:00:39;;;;;;;3.43;3.13;;;;;;;;;;4947229;29;20211;-64
2022/05/02 03:03:07;;;;;;;3.70;2.93;;;;;;;;;;4947063;29;20222;-64
2022/05/02 03:08:20;;;;;;;3.30;3.00;;;;;;;;;;4949046;29;20206;-65
2022/05/02 03:10:48;;;;;;;3.13;2.93;;;;;;;;;;4948763;29;20234;-64
2022/05/02 03:13:15;;;;;;;3.93;3.40;;;;;;;;;;4950201;29;20760;-64
2022/05/02 03:15:42;;;;;;;3.03;2.90;;;;;;;;;;4949921;28;20228;-64
2022/05/02 03:18:10;;;;;;;3.47;3.27;;;;;;;;;;4949502;28;20222;-64
2022/05/02 03:20:37;;;;;;;3.67;3.37;;;;;;;;;;4950224;28;20207;-64
2022/05/02 03:23:04;;;;;;;3.77;3.43;;;;;;;;;;4951672;29;20703;-64
2022/05/02 03:25:31;;;;;;;4.17;3.43;;;;;;;;;;4949498;29;20306;-64
2022/05/02 03:27:58;;;;;;;3.50;3.17;;;;;;;;;;4950042;29;20678;-64
2022/05/02 03:30:25;;;;;;;3.37;3.07;;;;;;;;;;4950533;29;20230;-66
2022/05/02 03:32:52;;;;;;;3.30;3.10;;;;;;;;;;4950646;28;20219;-64
2022/05/02 03:35:20;;;;;;;5.67;3.17;;;;;;;;;;4950958;29;20654;-64
2022/05/02 03:37:47;;;;;;;3.70;3.20;;;;;;;;;;4948771;29;20258;-64
2022/05/02 03:40:15;;;;;;;3.30;3.10;;;;;;;;;;4949968;28;20198;-64
2022/05/02 03:42:42;;;;;;;3.57;3.30;;;;;;;;;;4947973;29;20244;-64
2022/05/02 03:45:09;;;;;;;3.73;3.37;;;;;;;;;;4948834;29;20211;-64
2022/05/02 03:47:36;;;;;;;7.17;3.50;;;;;;;;;;4948530;29;20616;-64
2022/05/02 03:50:03;;;;;;;3.53;3.23;;;;;;;;;;4949398;29;20724;-64
2022/05/02 03:52:32;;;;;;;3.27;2.97;;;;;;;;;;4950230;28;20222;-64
2022/05/02 03:54:59;;;;;;;3.80;3.50;;;;;;;;;;4950606;28;20211;-64
2022/05/02 03:57:26;;;;;;;3.10;3.00;;;;;;;;;;4950477;29;20656;-64
2022/05/02 03:59:53;;;;;;;4.33;3.93;;;;;;;;;;4949900;28;20215;-65
2022/05/02 04:02:20;;;;;;;3.63;3.43;;;;;;;;;;4949516;28;20222;-65
2022/05/02 04:04:47;;;;;;;5.47;3.87;;;;;;;;;;4949355;28;20211;-64
2022/05/02 04:07:14;;;;;;;4.33;3.33;;;;;;;;;;4945757;29;20211;-65
2022/05/02 04:09:43;;;;;;;4.20;3.80;;;;;;;;;;4953340;28;20242;-65
2022/05/02 04:12:10;;;;;;;3.50;3.27;;;;;;;;;;4953303;28;20203;-65
2022/05/02 04:14:38;;;;;;;3.30;3.10;;;;;;;;;;4951018;28;20211;-65
2022/05/02 04:17:06;;;;;;;4.27;3.30;;;;;;;;;;4950386;28;20207;-63
2022/05/02 04:19:33;;;;;;;3.60;3.40;;;;;;;;;;4951219;28;20217;-64
2022/05/02 04:22:00;;;;;;;5.30;3.43;;;;;;;;;;4953578;28;20229;-64
2022/05/02 04:24:28;;;;;;;3.50;3.20;;;;;;;;;;4958721;28;20437;-64
2022/05/02 04:26:57;;;;;;;3.57;3.30;;;;;;;;;;4957788;28;20213;-64
2022/05/02 04:29:24;;;;;;;4.13;3.47;;;;;;;;;;4951862;28;20755;-64
2022/05/02 04:31:51;;;;;;;3.93;3.60;;;;;;;;;;4952295;28;20223;-64
2022/05/02 04:34:19;;;;;;;4.20;3.80;;;;;;;;;;4963352;28;20258;-65
2022/05/02 04:36:46;;;;;;;3.50;3.23;;;;;;;;;;4966113;28;20214;-64
2022/05/02 04:39:13;;;;;;;3.73;3.47;;;;;;;;;;4960351;28;20207;-62
2022/05/02 04:41:40;;;;;;;3.80;3.50;;;;;;;;;;4951330;28;20207;-61
2022/05/02 04:44:08;;;;;;;4.17;3.20;;;;;;;;;;4952183;28;20215;-67
2022/05/02 04:46:35;;;;;;;3.93;3.63;;;;;;;;;;4950867;28;20215;-64
2022/05/02 04:49:02;;;;;;;3.87;3.57;;;;;;;;;;4964624;28;20616;-64
2022/05/02 04:51:30;;;;;;;4.20;3.77;;;;;;;;;;4961525;28;20233;-64
2022/05/02 04:53:57;;;;;;;3.13;3.00;;;;;;;;;;4954506;28;20291;-65
2022/05/02 04:56:24;;;;;;;3.90;3.60;;;;;;;;;;4957281;28;20215;-65
2022/05/02 04:58:51;;;;;;;3.90;3.50;;;;;;;;;;4958628;28;20214;-64
2022/05/02 05:01:19;;;;;;;3.60;3.30;;;;;;;;;;4950769;28;20210;-64
2022/05/02 05:03:47;;;;;;;4.70;4.13;;;;;;;;;;4950926;28;20215;-64
2022/05/02 05:06:14;;;;;;;3.73;3.53;;;;;;;;;;4961344;28;20257;-64
2022/05/02 05:08:41;;;;;;;3.77;3.53;;;;;;;;;;4953387;28;20234;-64
2022/05/02 05:11:18;;;;;;;5.47;3.80;;;;;;;;;;4953080;28;20241;-64
2022/05/02 05:16:20;;;;;;;4.07;3.70;;;;;;;;;;4950660;28;20213;-64
2022/05/02 05:16:43;;;;;;;4.50;4.10;;;;;;;;;;4949398;28;20218;-65
2022/05/02 05:19:23;;;;;;;5.20;4.73;;;;;;;;;;4959675;28;20690;-65
2022/05/02 05:21:58;;;;;;;4.73;4.33;;;;;;;;;;4957970;28;20211;-65
2022/05/02 05:24:52;;;;;;;4.97;4.00;;;;;;;;;;4950944;29;20360;-70
2022/05/02 05:27:25;;;;;;;4.67;4.20;;;;;;;;;;4936387;28;20625;-63
2022/05/02 05:29:56;;;;;;;4.10;3.73;;;;;;;;;;4954233;28;20214;-65
2022/05/02 05:32:30;;;;;;;3.73;3.43;;;;;;;;;;4950290;29;20214;-65
2022/05/02 05:35:04;;;;;;;4.23;3.93;;;;;;;;;;4950196;28;20670;-63
2022/05/02 05:37:53;;;;;;;4.10;3.80;;;;;;;;;;4949869;28;20231;-65
2022/05/02 05:40:22;;;;;;;3.77;3.47;;;;;;;;;;4931363;29;20212;-65
2022/05/02 05:42:55;;;;;;;10.00;4.37;;;;;;;;;;4948501;28;20206;-65
2022/05/02 05:45:30;;;;;;;4.00;3.70;;;;;;;;;;4969179;28;20225;-65
2022/05/02 05:48:02;;;;;;;7.37;3.87;;;;;;;;;;4962452;28;20831;-65
2022/05/02 05:50:31;;;;;;;6.00;4.57;;;;;;;;;;4950058;28;20218;-65
2022/05/02 05:53:08;;;;;;;3.97;3.67;;;;;;;;;;4954303;28;20208;-69
2022/05/02 05:55:43;;;;;;;4.27;3.97;;;;;;;;;;4956657;28;20203;-65
2022/05/02 05:58:15;;;;;;;4.57;4.17;;;;;;;;;;4954471;28;20218;-65
2022/05/02 06:00:44;;;;;;;4.20;3.80;;;;;;;;;;4949870;29;20266;-65
2022/05/02 06:03:15;;;;;;;4.10;3.80;;;;;;;;;;4949102;29;20242;-66
2022/05/02 06:05:43;;;;;;;5.70;4.73;;;;;;;;;;4948464;28;20330;-65
2022/05/02 06:08:10;;;;;;;5.50;4.33;;;;;;;;;;4948741;29;20211;-63
2022/05/02 06:10:38;;;;;;;4.90;4.07;;;;;;;;;;4949077;29;20238;-65
2022/05/02 06:13:06;;;;;;;4.70;4.23;;;;;;;;;;4949177;29;20326;-65
2022/05/02 06:18:30;;;;;;;5.03;4.47;;;;;;;;;;4949517;29;20207;-65
2022/05/02 06:20:58;;;;;;;7.83;4.53;;;;;;;;;;4935150;29;20214;-65
2022/05/02 06:23:26;;;;;;;5.77;4.10;;;;;;;;;;4929872;29;20223;-65
2022/05/02 06:25:54;;;;;;;4.40;4.13;;;;;;;;;;4930001;29;20315;-65
2022/05/02 06:28:23;;;;;;;5.60;4.67;;;;;;;;;;4939726;29;20223;-65
2022/05/02 06:30:51;;;;;;;4.00;3.70;;;;;;;;;;4948759;29;20326;-65
2022/05/02 06:33:21;;;;;;;4.68;4.20;;;;;;;;;;4949159;29;20215;-65
2022/05/02 06:35:57;;;;;;;4.10;3.80;;;;;;;;;;4949276;29;20234;-65
2022/05/02 06:38:28;;;;;;;4.38;3.58;;;;;;;;;;4948745;29;20622;-65
2022/05/02 06:41:01;;;;;;;4.05;3.65;;;;;;;;;;4948589;29;20218;-65
2022/05/02 06:43:34;;;;;;;3.95;3.67;;;;;;;;;;4948959;29;20269;-65
2022/05/02 06:46:07;;;;;;;4.22;3.83;;;;;;;;;;4948876;29;20270;-65
2022/05/02 06:48:38;;;;;;;4.55;3.67;;;;;;;;;;4949498;29;20223;-66
2022/05/02 06:51:06;;;;;;;5.00;3.83;;;;;;;;;;4929828;29;20227;-65
2022/05/02 06:53:56;;;;;;;4.38;3.97;;;;;;;;;;4929925;29;20726;-65
2022/05/02 06:56:28;;;;;;;4.10;3.83;;;;;;;;;;4948738;29;20211;-66
2022/05/02 06:59:00;;;;;;;6.80;4.55;;;;;;;;;;4948810;29;20222;-66
2022/05/02 07:01:31;;;;;;;3.70;3.40;;;;;;;;;;4948307;29;20234;-65
2022/05/02 07:04:08;;;;;;;6.57;3.70;;;;;;;;;;4948880;29;20306;-65
2022/05/02 07:06:45;;;;;;;3.75;3.45;;;;;;;;;;4942782;29;20238;-66
2022/05/02 07:09:18;;;;;;;5.82;3.85;;;;;;;;;;4939015;29;20250;-65
2022/05/02 07:11:45;;;;;;;3.95;3.67;;;;;;;;;;4933053;29;20290;-66
2022/05/02 07:14:18;;;;;;;4.60;4.00;;;;;;;;;;4938186;28;20234;-65
2022/05/02 07:16:49;;;;;;;5.95;4.10;;;;;;;;;;4947499;29;20215;-65
2022/05/02 07:19:27;;;;;;;3.80;3.50;;;;;;;;;;4942512;29;20290;-66
2022/05/02 07:21:56;;;;;;;5.43;3.95;;;;;;;;;;4930188;29;20632;-66
2022/05/02 07:24:42;;;;;;;4.03;3.67;;;;;;;;;;4943420;29;20211;-66
2022/05/02 07:27:16;;;;;;;5.55;3.88;;;;;;;;;;4947586;29;20637;-66
2022/05/02 07:29:43;;;;;;;5.90;3.85;;;;;;;;;;4938154;29;20207;-65
2022/05/02 07:32:11;;;;;;;3.72;3.53;;;;;;;;;;4947605;28;20231;-63
2022/05/02 07:34:40;;;;;;;4.38;4.07;;;;;;;;;;4946893;29;20298;-62
2022/05/02 07:37:07;;;;;;;5.45;4.10;;;;;;;;;;4948310;28;20231;-66
2022/05/02 07:39:37;;;;;;;4.65;4.22;;;;;;;;;;4948393;28;20682;-65
2022/05/02 07:42:05;;;;;;;3.80;3.60;;;;;;;;;;4948354;28;20270;-62
2022/05/02 07:44:35;;;;;;;4.20;3.90;;;;;;;;;;4947271;29;20215;-62
2022/05/02 07:47:04;;;;;;;5.18;3.75;;;;;;;;;;4946174;29;20215;-61
2022/05/02 07:49:32;;;;;;;3.85;3.55;;;;;;;;;;4949347;28;20268;-63
2022/05/02 07:52:02;;;;;;;3.78;3.47;;;;;;;;;;4949618;28;20230;-63
2022/05/02 07:54:30;;;;;;;3.88;3.67;;;;;;;;;;4952404;29;20215;-61
2022/05/02 07:56:57;;;;;;;3.28;3.08;;;;;;;;;;4952106;28;20211;-62
2022/05/02 07:59:26;;;;;;;5.82;4.03;;;;;;;;;;4948144;29;20211;-62
2022/05/02 08:01:53;;;;;;;3.47;3.28;;;;;;;;;;4951477;29;20836;-62
2022/05/02 08:04:21;;;;;;;4.18;3.80;;;;;;;;;;4952453;29;20217;-62
2022/05/02 08:06:55;;;;;;;5.07;3.65;;;;;;;;;;4952412;29;20231;-64
2022/05/02 08:09:36;;;;;;;4.03;3.50;;;;;;;;;;4954710;28;20245;-62
2022/05/02 08:12:07;;;;;;;3.20;3.00;;;;;;;;;;4969585;28;20660;-61
2022/05/02 08:14:48;;;;;;;4.78;3.70;;;;;;;;;;4952269;28;20218;-61
2022/05/02 08:17:21;;;;;;;3.50;3.20;;;;;;;;;;4933372;28;20667;-62
2022/05/02 08:19:54;;;;;;;2.80;2.60;;;;;;;;;;4940540;28;20206;-64
2022/05/02 08:28:03;;;;;;;4.25;3.13;;;;;;;;;;4962252;28;20251;-61
2022/05/02 08:30:35;;;;;;;3.17;2.88;;;;;;;;;;4945213;28;20211;-62
2022/05/02 08:33:04;;;;;;;2.47;2.38;;;;;;;;;;4950275;28;20239;-62
2022/05/02 08:35:44;;;;;;;3.38;3.13;;;;;;;;;;4950561;28;20227;-62
2022/05/02 08:38:19;;;;;;;2.92;2.83;;;;;;;;;;4950705;28;20263;-62
2022/05/02 08:41:10;;;;;;;3.30;2.58;;;;;;;;;;4932400;29;20215;-62
2022/05/02 08:43:46;;;;;;;2.63;2.50;;;;;;;;;;4952930;28;20226;-62
2022/05/02 08:46:34;;;;;;;3.15;2.67;;;;;;;;;;4958313;28;20298;-62
2022/05/02 08:52:10;;;;;;;2.55;2.45;;;;;;;;;;4951183;29;20234;-62
2022/05/02 08:54:54;;;;;;;3.13;2.92;;;;;;;;;;4951044;28;20230;-62
2022/05/02 08:57:36;;;;;;;3.28;3.08;;;;;;;;;;4950928;28;20214;-62
2022/05/02 09:00:06;;;;;;;3.35;3.15;;;;;;;;;;4950939;28;20262;-62
2022/05/02 09:02:52;;;;;;;4.28;2.65;;;;;;;;;;4950560;28;20203;-62
2022/05/02 09:05:37;;;;;;;3.08;2.58;;;;;;;;;;4950938;28;20237;-62
2022/05/02 09:08:19;;;;;;;2.80;2.70;;;;;;;;;;4950903;29;20246;-62
2022/05/02 09:10:57;;;;;;;3.33;3.13;;;;;;;;;;4945979;28;20211;-62
2022/05/02 09:13:43;;;;;;;3.42;3.17;;;;;;;;;;4950855;29;20207;-62
2022/05/02 09:16:23;;;;;;;4.60;2.85;;;;;;;;;;4950037;29;20262;-62
2022/05/02 09:19:15;;;;;;;3.40;2.95;;;;;;;;;;4934877;28;20210;-62
2022/05/02 09:21:53;;;;;;;2.78;2.67;;;;;;;;;;4950334;28;20213;-62
2022/05/02 09:24:29;;;;;;;3.20;2.67;;;;;;;;;;4946722;29;20218;-62
2022/05/02 09:27:17;;;;;;;3.90;2.75;;;;;;;;;;4931414;29;20226;-62
2022/05/02 09:29:59;;;;;;;4.00;3.25;;;;;;;;;;4931488;29;20686;-62
2022/05/02 09:32:35;;;;;;;4.00;3.38;;;;;;;;;;4941944;28;20234;-62
2022/05/02 09:35:04;;;;;;;3.97;3.28;;;;;;;;;;4950615;29;20222;-62
2022/05/02 09:37:39;;;;;;;6.68;3.53;;;;;;;;;;4949950;29;20204;-63
2022/05/02 09:40:10;;;;;;;4.15;3.17;;;;;;;;;;4950560;28;20218;-62
2022/05/02 09:42:45;;;;;;;3.45;3.10;;;;;;;;;;4933091;29;20237;-62
2022/05/02 09:51:08;;;;;;;2.53;2.40;;;;;;;;;;4901415;29;20331;-62
2022/05/02 09:53:40;;;;;;;3.90;3.60;;;;;;;;;;4950144;28;20215;-62
2022/05/02 09:58:55;;;;;;;3.72;3.42;;;;;;;;;;4947149;28;20214;-62
2022/05/02 10:01:24;;;;;;;3.53;3.30;;;;;;;;;;4949088;29;20294;-62
2022/05/02 10:04:11;;;;;;;3.80;3.60;;;;;;;;;;4949459;29;20213;-62
2022/05/02 10:06:43;;;;;;;3.78;3.47;;;;;;;;;;4949211;29;20715;-62
2022/05/02 10:09:18;;;;;;;2.92;2.83;;;;;;;;;;4954207;28;20337;-61
2022/05/02 10:12:04;;;;;;;4.57;4.18;;;;;;;;;;4949351;29;20246;-60
2022/05/02 10:14:36;;;;;;;4.30;3.08;;;;;;;;;;4963615;28;20251;-61
2022/05/02 10:17:07;;;;;;;3.58;3.38;;;;;;;;;;4961357;28;20588;-61
2022/05/02 10:19:44;;;;;;;3.58;3.38;;;;;;;;;;4951752;28;20297;-62
2022/05/02 10:22:23;;;;;;;3.95;3.67;;;;;;;;;;4947496;28;20670;-61
2022/05/02 10:24:59;;;;;;;4.97;3.50;;;;;;;;;;4948406;29;20318;-61
2022/05/02 10:27:34;;;;;;;3.20;3.00;;;;;;;;;;4949082;28;20211;-60
2022/05/02 10:30:06;;;;;;;5.20;3.70;;;;;;;;;;4958116;28;20212;-60
2022/05/02 10:32:38;;;;;;;3.10;3.00;;;;;;;;;;4948448;29;20285;-61
2022/05/02 10:35:11;;;;;;;3.40;3.17;;;;;;;;;;4936879;28;20219;-61
2022/05/02 10:37:39;;;;;;;4.35;3.47;;;;;;;;;;4929848;29;20218;-60
2022/05/02 10:40:08;;;;;;;3.90;3.60;;;;;;;;;;4959222;28;20626;-61
2022/05/02 10:42:35;;;;;;;2.75;2.65;;;;;;;;;;4950739;28;20562;-61
2022/05/02 10:45:05;;;;;;;4.43;3.90;;;;;;;;;;4956207;28;20229;-60
2022/05/02 10:47:41;;;;;;;3.58;3.38;;;;;;;;;;4942057;29;20849;-60
2022/05/02 10:50:16;;;;;;;5.18;3.72;;;;;;;;;;4949486;28;20301;-62
2022/05/02 10:52:52;;;;;;;3.17;2.92;;;;;;;;;;4933056;28;20321;-63
2022/05/02 10:55:26;;;;;;;3.65;3.45;;;;;;;;;;4968484;28;20206;-59
2022/05/02 10:57:54;;;;;;;5.07;3.70;;;;;;;;;;4963948;28;20233;-62
2022/05/02 11:00:21;;;;;;;4.13;3.83;;;;;;;;;;4960504;28;20207;-63
2022/05/02 11:02:56;;;;;;;4.93;3.60;;;;;;;;;;4959661;28;20199;-62
2022/05/02 11:05:28;;;;;;;5.70;3.40;;;;;;;;;;4948361;29;20234;-61
2022/05/02 11:07:56;;;;;;;4.15;3.85;;;;;;;;;;4952463;28;20562;-61
2022/05/02 11:10:27;;;;;;;4.32;3.97;;;;;;;;;;4967412;28;20246;-61
2022/05/02 11:13:00;;;;;;;4.10;3.70;;;;;;;;;;4929555;29;20238;-61
2022/05/02 11:15:32;;;;;;;2.55;2.42;;;;;;;;;;4929383;28;20706;-61
2022/05/02 11:18:07;;;;;;;5.38;3.78;;;;;;;;;;4929846;29;20216;-61
2022/05/02 11:20:42;;;;;;;4.43;3.80;;;;;;;;;;4950913;28;20214;-61
2022/05/02 11:23:31;;;;;;;3.90;3.60;;;;;;;;;;4948669;29;20234;-60
2022/05/02 11:26:09;;;;;;;5.15;4.75;;;;;;;;;;4943644;28;20293;-61
2022/05/02 11:28:38;;;;;;;3.72;3.50;;;;;;;;;;4954395;28;20598;-61
2022/05/02 11:31:09;;;;;;;3.85;3.55;;;;;;;;;;4959705;28;20210;-61
2022/05/02 11:33:39;;;;;;;3.92;3.72;;;;;;;;;;4963160;28;20716;-62
2022/05/02 11:36:10;;;;;;;4.60;4.20;;;;;;;;;;4965654;28;20202;-62
2022/05/02 11:38:41;;;;;;;4.97;4.57;;;;;;;;;;4952799;28;20305;-62
2022/05/02 11:41:12;;;;;;;4.80;4.20;;;;;;;;;;4967615;28;20231;-62
2022/05/02 11:43:39;;;;;;;4.30;4.00;;;;;;;;;;4971227;28;20238;-62
2022/05/02 11:46:14;;;;;;;4.20;3.88;;;;;;;;;;4956550;28;20218;-62
2022/05/02 11:48:59;;;;;;;4.07;3.78;;;;;;;;;;4941852;28;20218;-64
2022/05/02 11:51:38;;;;;;;4.10;3.75;;;;;;;;;;4951209;28;20708;-62
2022/05/02 11:54:09;;;;;;;3.80;3.60;;;;;;;;;;4942205;28;20242;-62
2022/05/02 11:56:41;;;;;;;3.90;3.63;;;;;;;;;;4971215;28;20752;-62
2022/05/02 11:59:13;;;;;;;3.55;3.33;;;;;;;;;;4954706;28;20210;-65
2022/05/02 12:01:42;;;;;;;4.45;4.15;;;;;;;;;;4948725;28;20577;-64
2022/05/02 12:04:10;;;;;;;4.78;3.97;;;;;;;;;;4961695;28;20574;-64
2022/05/02 12:06:52;;;;;;;4.25;3.95;;;;;;;;;;4963848;28;20333;-64
2022/05/02 12:09:22;;;;;;;4.05;3.78;;;;;;;;;;4967940;28;20728;-63
2022/05/02 12:11:54;;;;;;;3.17;2.97;;;;;;;;;;4932170;29;20267;-64
2022/05/02 12:14:22;;;;;;;5.45;4.00;;;;;;;;;;4939471;28;20294;-63
2022/05/02 12:17:03;;;;;;;4.15;3.67;;;;;;;;;;4950954;29;20215;-63
2022/05/02 12:19:31;;;;;;;3.63;3.50;;;;;;;;;;4956875;28;20210;-63
2022/05/02 12:22:02;;;;;;;3.80;3.60;;;;;;;;;;4951018;28;20242;-63
2022/05/02 12:24:33;;;;;;;4.57;4.03;;;;;;;;;;4951700;28;20208;-63
2022/05/02 12:27:00;;;;;;;4.32;4.03;;;;;;;;;;4950426;29;20666;-62
2022/05/02 12:29:28;;;;;;;3.83;3.63;;;;;;;;;;4956373;28;20217;-63
2022/05/02 12:31:57;;;;;;;4.20;3.90;;;;;;;;;;4953575;28;20246;-63
2022/05/02 12:34:36;;;;;;;5.32;3.90;;;;;;;;;;4955042;28;20253;-63
2022/05/02 12:37:06;;;;;;;4.00;3.80;;;;;;;;;;4969374;28;20219;-61
2022/05/02 12:39:36;;;;;;;3.53;3.40;;;;;;;;;;4964027;28;20210;-61
2022/05/02 12:42:12;;;;;;;4.03;3.78;;;;;;;;;;4950559;29;20214;-64
2022/05/02 12:44:43;;;;;;;4.60;3.60;;;;;;;;;;4951139;28;20250;-63
2022/05/02 12:47:15;;;;;;;4.43;3.88;;;;;;;;;;4949913;29;20211;-62
2022/05/02 12:49:53;;;;;;;4.10;3.70;;;;;;;;;;4950539;28;20746;-64
2022/05/02 12:52:22;;;;;;;5.70;3.72;;;;;;;;;;4950288;29;20214;-62
2022/05/02 12:54:51;;;;;;;4.70;3.88;;;;;;;;;;4952014;28;20685;-62
2022/05/02 13:02:53;;;;;;;4.03;3.67;;;;;;;;;;4944626;28;20635;-59
2022/05/02 13:05:21;;;;;;;3.50;3.28;;;;;;;;;;4950165;28;20231;-61
2022/05/02 13:07:50;;;;;;;3.25;3.15;;;;;;;;;;4953157;28;20207;-61
2022/05/02 13:10:18;;;;;;;4.22;4.03;;;;;;;;;;4955470;28;20254;-61
2022/05/02 13:12:57;;;;;;;5.43;4.18;;;;;;;;;;4950431;28;20227;-61
2022/05/02 13:15:25;;;;;;;4.25;3.95;;;;;;;;;;4950378;28;20322;-61
2022/05/02 13:17:53;;;;;;;5.88;3.72;;;;;;;;;;4949598;28;20685;-61
2022/05/02 13:20:45;;;;;;;3.08;2.92;;;;;;;;;;4954770;28;20203;-61
2022/05/02 13:23:14;;;;;;;3.90;3.70;;;;;;;;;;4955501;28;20754;-60
2022/05/02 13:26:04;;;;;;;3.45;3.35;;;;;;;;;;4961326;28;20612;-60
2022/05/02 13:28:39;;;;;;;4.03;3.80;;;;;;;;;;4945000;28;20207;-61
2022/05/02 13:31:09;;;;;;;3.88;3.67;;;;;;;;;;4942854;28;20707;-61
2022/05/02 13:33:39;;;;;;;4.50;3.53;;;;;;;;;;4945188;28;20239;-60
2022/05/02 13:36:08;;;;;;;3.63;3.42;;;;;;;;;;4946420;29;20229;-60
2022/05/02 13:38:44;;;;;;;3.85;3.40;;;;;;;;;;4950173;28;20229;-61
2022/05/02 13:41:16;;;;;;;4.65;4.18;;;;;;;;;;4945872;28;20293;-62
2022/05/02 13:43:46;;;;;;;3.45;3.25;;;;;;;;;;4949913;28;20222;-63
2022/05/02 13:46:19;;;;;;;4.03;3.83;;;;;;;;;;4945745;28;20769;-61
2022/05/02 13:48:56;;;;;;;3.88;3.67;;;;;;;;;;4945635;28;20303;-62
2022/05/02 13:51:32;;;;;;;3.55;3.42;;;;;;;;;;4951197;28;20221;-62
2022/05/02 13:54:02;;;;;;;3.67;3.38;;;;;;;;;;4958016;28;20242;-62
2022/05/02 13:56:32;;;;;;;3.38;3.05;;;;;;;;;;4950183;28;20203;-63
2022/05/02 13:59:03;;;;;;;3.65;3.45;;;;;;;;;;4961905;28;20598;-63
2022/05/02 14:01:36;;;;;;;4.28;3.95;;;;;;;;;;4960519;28;20294;-63
2022/05/02 14:04:13;;;;;;;3.70;3.40;;;;;;;;;;4955308;28;20202;-62
2022/05/02 14:06:55;;;;;;;3.20;3.00;;;;;;;;;;4947667;28;20230;-61
2022/05/02 14:09:40;;;;;;;3.92;3.72;;;;;;;;;;4945069;29;20245;-60
2022/05/02 14:12:10;;;;;;;3.95;3.65;;;;;;;;;;4926618;29;20275;-62
2022/05/02 14:14:54;;;;;;;4.68;3.80;;;;;;;;;;4940558;28;20239;-59
2022/05/02 14:17:26;;;;;;;3.70;3.40;;;;;;;;;;4945112;28;20211;-60
2022/05/02 14:19:54;;;;;;;3.40;3.20;;;;;;;;;;4945178;28;20223;-60
2022/05/02 14:22:33;;;;;;;3.63;3.53;;;;;;;;;;4937993;29;20301;-60
2022/05/02 14:25:01;;;;;;;3.90;3.60;;;;;;;;;;4944677;28;20222;-60
2022/05/02 14:27:30;;;;;;;3.60;3.40;;;;;;;;;;4943565;29;20310;-60
2022/05/02 14:30:02;;;;;;;3.72;3.30;;;;;;;;;;4944920;28;20235;-60
2022/05/02 14:32:40;;;;;;;5.05;3.55;;;;;;;;;;4944506;28;20224;-60
2022/05/02 14:35:07;;;;;;;3.50;3.30;;;;;;;;;;4945556;29;20301;-60
2022/05/02 14:37:36;;;;;;;3.65;3.45;;;;;;;;;;4945627;28;20299;-63
2022/05/02 14:40:05;;;;;;;4.63;2.67;;;;;;;;;;4945281;28;20271;-62
2022/05/02 14:42:33;;;;;;;3.75;3.55;;;;;;;;;;4945340;28;20333;-63
2022/05/02 14:45:00;;;;;;;4.70;2.70;;;;;;;;;;4944918;28;20213;-62
2022/05/02 14:47:28;;;;;;;2.95;2.85;;;;;;;;;;4944900;28;20294;-62
2022/05/02 14:49:57;;;;;;;2.95;2.75;;;;;;;;;;4944971;29;20229;-64
2022/05/02 14:52:25;;;;;;;2.92;2.83;;;;;;;;;;4945032;28;20214;-64
2022/05/02 14:54:52;;;;;;;2.88;2.78;;;;;;;;;;4945013;28;20706;-62
2022/05/02 14:57:23;;;;;;;3.13;2.92;;;;;;;;;;4945160;28;20218;-64
2022/05/02 14:59:52;;;;;;;3.05;2.85;;;;;;;;;;4944529;28;20225;-60
2022/05/02 15:02:22;;;;;;;3.00;2.80;;;;;;;;;;4947834;29;20218;-61
2022/05/02 15:04:50;;;;;;;2.88;2.67;;;;;;;;;;4947882;29;20617;-62
2022/05/02 15:07:20;;;;;;;3.08;2.90;;;;;;;;;;4948381;28;20219;-61
2022/05/02 15:12:46;;;;;;;2.80;2.70;;;;;;;;;;4948663;29;21019;-62
2022/05/02 15:15:31;;;;;;;3.10;2.90;;;;;;;;;;4959776;28;20909;-62
2022/05/02 15:18:10;;;;;;;4.15;2.78;;;;;;;;;;4948312;29;20476;-62
2022/05/02 15:20:42;;;;;;;3.20;3.10;;;;;;;;;;4947937;28;20242;-62
2022/05/02 15:23:11;;;;;;;3.10;2.92;;;;;;;;;;4948656;28;20633;-62
2022/05/02 15:25:50;;;;;;;3.00;2.78;;;;;;;;;;4948293;28;20223;-61
2022/05/02 15:36:47;;;;;;;3.33;3.05;;;;;;;;;;4948153;29;20274;-60
2022/05/02 15:39:30;;;;;;;3.60;3.30;;;;;;;;;;4945612;28;20217;-60
2022/05/02 15:42:03;;;;;;;2.65;2.55;;;;;;;;;;4941328;29;20449;-60
2022/05/02 15:44:39;;;;;;;4.03;3.67;;;;;;;;;;4946155;29;20302;-61
2022/05/02 15:47:07;;;;;;;3.13;3.03;;;;;;;;;;4943419;28;20802;-62